Time;durP1;ratioP1;P1;durP2;ratioP2;P2;SDS_P1;SDS_P2;PMS_P1;PMS_P2;Temp;Humidity;BMP_temperature;BMP_pressure;BME280_temperature;BME280_humidity;BME280_pressure;Samples;Min_cycle;Max_cycle;Signal;HPM_P1;HPM_P2
2023/04/22 00:00:23;;;;;;;;;3.00;3.00;;;;;9.56;73.82;99174.81;5095858;28;8941;-58
2023/04/22 00:02:51;;;;;;;;;5.50;4.00;;;;;9.49;73.68;99176.31;5096632;28;9511;-60
2023/04/22 00:05:19;;;;;;;;;4.00;4.00;;;;;9.46;73.79;99183.72;5097428;28;8911;-60
2023/04/22 00:07:47;;;;;;;;;3.00;3.00;;;;;9.41;73.62;99175.34;5097788;28;8840;-60
2023/04/22 00:10:15;;;;;;;;;4.50;4.50;;;;;9.37;73.81;99172.09;5096155;28;8957;-60
2023/04/22 00:12:43;;;;;;;;;3.25;3.00;;;;;9.35;74.13;99173.19;5097272;28;8825;-58
2023/04/22 00:15:11;;;;;;;;;6.00;6.00;;;;;9.31;73.96;99167.31;5096450;28;8851;-61
2023/04/22 00:17:39;;;;;;;;;4.00;4.00;;;;;9.29;73.92;99166.63;5097000;28;8842;-60
2023/04/22 00:20:06;;;;;;;;;2.50;1.00;;;;;9.28;73.80;99161.41;5096715;28;8957;-60
2023/04/22 00:22:34;;;;;;;;;6.00;5.50;;;;;9.27;73.88;99157.09;5096321;28;8829;-60
2023/04/22 00:25:02;;;;;;;;;5.00;5.00;;;;;9.26;74.05;99153.56;5097152;28;8825;-61
2023/04/22 00:27:30;;;;;;;;;3.75;3.00;;;;;9.26;73.76;99156.22;5095234;28;8826;-59
2023/04/22 00:29:57;;;;;;;;;7.00;6.00;;;;;9.25;73.79;99157.22;5096029;28;8870;-60
2023/04/22 00:32:25;;;;;;;;;6.00;6.00;;;;;9.24;73.89;99160.84;5095660;28;9519;-59
2023/04/22 00:34:53;;;;;;;;;4.00;4.00;;;;;9.21;73.75;99154.97;5096176;28;8825;-60
2023/04/22 00:37:20;;;;;;;;;6.00;6.00;;;;;9.19;73.74;99157.75;5095583;28;9543;-58
2023/04/22 00:39:48;;;;;;;;;3.50;3.50;;;;;9.18;73.73;99163.19;5096160;28;8871;-59
2023/04/22 00:42:16;;;;;;;;;6.00;6.00;;;;;9.16;73.89;99149.19;5096601;28;8837;-60
2023/04/22 00:44:44;;;;;;;;;8.75;8.50;;;;;9.15;74.04;99159.00;5097154;28;8861;-59
2023/04/22 00:47:11;;;;;;;;;3.00;3.00;;;;;9.16;73.77;99155.34;5096890;28;8967;-59
2023/04/22 00:49:39;;;;;;;;;3.00;2.50;;;;;9.16;73.51;99154.50;5096129;28;9765;-61
2023/04/22 00:52:07;;;;;;;;;7.00;7.00;;;;;9.19;73.71;99162.22;5096644;28;8826;-61
2023/04/22 00:54:35;;;;;;;;;7.00;6.00;;;;;9.21;73.64;99153.16;5096684;28;8833;-60
2023/04/22 00:57:03;;;;;;;;;5.50;4.50;;;;;9.22;73.37;99160.16;5096549;28;8830;-58
2023/04/22 00:59:31;;;;;;;;;6.25;5.00;;;;;9.25;73.17;99159.88;5096043;28;8794;-58
2023/04/22 01:01:59;;;;;;;;;2.00;2.00;;;;;9.27;73.30;99155.25;5096555;28;8818;-59
2023/04/22 01:04:27;;;;;;;;;4.00;3.50;;;;;9.30;73.29;99152.34;5096530;28;8822;-61
2023/04/22 01:06:55;;;;;;;;;6.50;6.00;;;;;9.31;73.08;99153.16;5096290;28;8850;-60
2023/04/22 01:09:23;;;;;;;;;0.00;0.00;;;;;9.34;73.38;99151.09;5096166;28;8833;-60
2023/04/22 01:11:50;;;;;;;;;6.00;6.00;;;;;9.35;73.31;99150.13;5096690;28;8937;-59
2023/04/22 01:14:18;;;;;;;;;6.00;4.00;;;;;9.37;73.10;99150.00;5096365;28;8818;-60
2023/04/22 01:16:47;;;;;;;;;0.50;0.50;;;;;9.40;72.80;99152.38;5096091;28;8850;-60
2023/04/22 01:19:15;;;;;;;;;7.75;6.75;;;;;9.41;73.07;99152.25;5096057;28;9508;-59
2023/04/22 01:21:43;;;;;;;;;3.75;3.50;;;;;9.44;73.08;99154.66;5095726;28;8850;-60
2023/04/22 01:24:11;;;;;;;;;8.00;5.75;;;;;9.46;72.81;99144.72;5096418;28;8833;-61
2023/04/22 01:26:39;;;;;;;;;3.50;3.50;;;;;9.49;73.00;99146.28;5096185;28;8841;-61
2023/04/22 01:29:06;;;;;;;;;5.50;5.50;;;;;9.52;72.46;99146.84;5095128;28;8818;-61
2023/04/22 01:31:34;;;;;;;;;5.00;4.75;;;;;9.51;72.59;99147.81;5095107;28;8815;-61
2023/04/22 01:34:02;;;;;;;;;6.00;6.00;;;;;9.47;72.66;99142.88;5095819;28;8810;-61
2023/04/22 01:36:31;;;;;;;;;4.00;4.00;;;;;9.40;73.20;99142.59;5095711;28;8837;-60
2023/04/22 01:38:59;;;;;;;;;4.50;3.75;;;;;9.33;73.04;99151.25;5095580;28;8853;-61
2023/04/22 01:41:28;;;;;;;;;3.00;3.00;;;;;9.25;73.30;99154.56;5095728;28;8841;-61
2023/04/22 01:43:56;;;;;;;;;4.00;4.00;;;;;9.19;73.25;99157.75;5096366;28;8914;-58
2023/04/22 01:46:23;;;;;;;;;6.50;6.00;;;;;9.18;73.22;99148.09;5096022;28;8822;-61
2023/04/22 01:48:51;;;;;;;;;4.00;4.00;;;;;9.15;73.45;99148.38;5095554;28;8798;-61
2023/04/22 01:51:19;;;;;;;;;6.25;6.00;;;;;9.14;73.58;99159.13;5095967;28;8889;-58
2023/04/22 01:53:47;;;;;;;;;6.25;4.50;;;;;9.13;73.59;99166.22;5096196;28;8826;-58
2023/04/22 01:56:15;;;;;;;;;4.00;4.00;;;;;9.14;73.10;99169.75;5096108;28;8818;-61
2023/04/22 01:58:43;;;;;;;;;5.00;3.75;;;;;9.13;73.41;99160.91;5095651;28;8814;-59
2023/04/22 02:01:10;;;;;;;;;7.00;7.00;;;;;9.13;73.44;99157.44;5096429;28;8826;-60
2023/04/22 02:03:38;;;;;;;;;3.00;3.00;;;;;9.13;73.77;99160.91;5095992;28;8830;-59
2023/04/22 02:06:06;;;;;;;;;6.75;6.00;;;;;9.15;73.17;99172.28;5095869;28;8814;-60
2023/04/22 02:08:34;;;;;;;;;6.00;5.50;;;;;9.16;73.01;99165.97;5096020;28;9503;-60
2023/04/22 02:11:02;;;;;;;;;5.00;4.00;;;;;9.19;73.68;99163.03;5096229;28;9510;-60
2023/04/22 02:13:29;;;;;;;;;6.00;5.00;;;;;9.22;73.01;99168.13;5096042;28;8836;-60
2023/04/22 02:15:57;;;;;;;;;8.50;6.50;;;;;9.26;73.25;99164.19;5095897;28;8895;-60
2023/04/22 02:18:24;;;;;;;;;5.50;5.50;;;;;9.29;73.19;99163.97;5095327;28;8850;-60
2023/04/22 02:20:52;;;;;;;;;8.00;6.00;;;;;9.30;73.27;99160.31;5095591;28;8845;-61
2023/04/22 02:23:20;;;;;;;;;6.00;5.50;;;;;9.30;72.76;99162.97;5095851;28;8838;-58
2023/04/22 02:25:48;;;;;;;;;2.50;2.00;;;;;9.28;72.93;99154.28;5095858;28;8853;-60
2023/04/22 02:28:15;;;;;;;;;3.00;1.50;;;;;9.28;72.83;99159.59;5094824;28;8826;-61
2023/04/22 02:30:43;;;;;;;;;6.00;6.00;;;;;9.31;72.93;99158.50;5095562;28;8836;-60
2023/04/22 02:33:11;;;;;;;;;4.00;4.00;;;;;9.33;72.87;99161.88;5098617;28;8802;-61
2023/04/22 02:35:38;;;;;;;;;5.00;4.50;;;;;9.36;72.94;99159.78;5099238;28;8910;-60
2023/04/22 02:38:06;;;;;;;;;5.00;4.00;;;;;9.37;72.69;99164.13;5078835;28;9893;-61
2023/04/22 02:40:33;;;;;;;;;5.25;3.75;;;;;9.41;72.97;99164.69;5079095;28;8831;-61
2023/04/22 02:43:01;;;;;;;;;4.00;3.50;;;;;9.40;72.75;99163.00;5078919;28;8816;-60
2023/04/22 02:45:29;;;;;;;;;3.50;3.50;;;;;9.36;73.10;99158.94;5079120;28;8820;-61
2023/04/22 02:47:57;;;;;;;;;4.00;4.00;;;;;9.34;73.11;99153.75;5097917;28;8845;-61
2023/04/22 02:50:25;;;;;;;;;3.00;3.00;;;;;9.32;72.94;99153.06;5098688;28;8836;-59
2023/04/22 02:52:52;;;;;;;;;4.00;3.75;;;;;9.34;72.87;99147.63;5099394;28;8825;-60
2023/04/22 02:55:20;;;;;;;;;4.00;3.25;;;;;9.36;73.01;99151.81;5098911;28;8949;-61
2023/04/22 02:57:48;;;;;;;;;4.50;4.50;;;;;9.39;72.72;99153.34;5098604;28;8818;-58
2023/04/22 03:00:17;;;;;;;;;4.00;4.00;;;;;9.43;72.69;99150.28;5098805;28;8842;-58
2023/04/22 03:02:44;;;;;;;;;3.75;3.00;;;;;9.44;73.16;99145.81;5098529;28;9526;-61
2023/04/22 03:05:12;;;;;;;;;4.50;3.75;;;;;9.46;72.69;99147.38;5099100;28;8826;-61
2023/04/22 03:07:40;;;;;;;;;4.00;4.00;;;;;9.47;72.74;99141.09;5098429;28;8837;-60
2023/04/22 03:10:09;;;;;;;;;4.00;4.00;;;;;9.49;72.26;99131.16;5099075;28;8826;-57
2023/04/22 03:12:36;;;;;;;;;3.25;3.00;;;;;9.49;72.43;99131.16;5098784;28;8856;-59
2023/04/22 03:15:04;;;;;;;;;5.00;4.50;;;;;9.51;72.70;99137.19;5098765;28;8833;-61
2023/04/22 03:17:32;;;;;;;;;5.25;5.25;;;;;9.51;72.70;99134.53;5098488;28;9506;-60
2023/04/22 03:20:00;;;;;;;;;4.50;4.00;;;;;9.54;72.90;99130.75;5098234;28;8829;-59
2023/04/22 03:22:28;;;;;;;;;4.00;4.00;;;;;9.54;72.54;99138.72;5098667;28;8857;-60
2023/04/22 03:24:56;;;;;;;;;5.50;3.25;;;;;9.52;73.17;99133.56;5098714;28;8822;-59
2023/04/22 03:27:23;;;;;;;;;5.50;4.00;;;;;9.52;72.69;99133.56;5098227;28;8828;-60
2023/04/22 03:29:51;;;;;;;;;4.00;4.00;;;;;9.51;72.53;99136.34;5098246;28;8845;-59
2023/04/22 03:32:19;;;;;;;;;5.00;3.50;;;;;9.50;72.62;99121.38;5097654;28;8830;-61
2023/04/22 03:34:47;;;;;;;;;3.75;3.75;;;;;9.51;72.72;99118.59;5098383;28;8840;-60
2023/04/22 03:37:14;;;;;;;;;5.00;5.00;;;;;9.51;72.69;99113.28;5097982;28;8814;-61
2023/04/22 03:39:42;;;;;;;;;8.00;6.75;;;;;9.52;72.30;99119.41;5097907;28;8834;-59
2023/04/22 03:42:09;;;;;;;;;10.50;10.50;;;;;9.55;72.68;99109.34;5098096;28;8814;-59
2023/04/22 03:44:37;;;;;;;;;9.50;8.50;;;;;9.57;72.56;99115.38;5097114;28;8825;-60
2023/04/22 03:47:05;;;;;;;;;6.25;6.25;;;;;9.58;72.94;99114.38;5097556;28;8818;-61
2023/04/22 03:49:33;;;;;;;;;1.50;1.50;;;;;9.59;72.38;99105.47;5097825;28;8802;-60
2023/04/22 03:52:01;;;;;;;;;5.50;5.00;;;;;9.61;72.32;99102.66;5097754;28;8806;-61
2023/04/22 03:54:29;;;;;;;;;9.00;7.00;;;;;9.62;73.00;99099.84;5097180;28;8844;-60
2023/04/22 03:56:57;;;;;;;;;4.25;4.25;;;;;9.63;72.23;99090.91;5097915;28;8890;-60
2023/04/22 03:59:25;;;;;;;;;5.50;5.00;;;;;9.64;72.43;99100.56;5097610;28;8845;-60
2023/04/22 04:01:53;;;;;;;;;9.50;9.00;;;;;9.65;72.61;99098.75;5097494;28;8826;-60
2023/04/22 04:04:22;;;;;;;;;7.50;7.50;;;;;9.68;72.28;99096.66;5097238;28;8817;-58
2023/04/22 04:06:50;;;;;;;;;6.00;6.00;;;;;9.70;72.38;99094.69;5097294;28;8826;-61
2023/04/22 04:09:18;;;;;;;;;3.75;3.50;;;;;9.71;72.55;99088.41;5097140;28;9514;-60
2023/04/22 04:11:46;;;;;;;;;7.00;7.00;;;;;9.73;72.72;99090.94;5096875;28;8837;-60
2023/04/22 04:14:13;;;;;;;;;4.75;3.00;;;;;9.73;72.26;99091.75;5096939;28;8810;-61
2023/04/22 04:16:41;;;;;;;;;7.00;6.67;;;;;9.74;72.38;99090.81;5097284;28;8918;-58
2023/04/22 04:19:09;;;;;;;;;7.50;7.00;;;;;9.74;72.70;99093.47;5097261;28;8834;-61
2023/04/22 04:21:38;;;;;;;;;7.50;6.50;;;;;9.74;72.13;99077.50;5096777;28;8809;-59
2023/04/22 04:24:06;;;;;;;;;4.50;3.75;;;;;9.74;72.27;99074.84;5097404;28;8825;-58
2023/04/22 04:26:33;;;;;;;;;8.50;6.50;;;;;9.75;72.24;99079.19;5096961;28;8852;-60
2023/04/22 04:29:01;;;;;;;;;6.00;5.50;;;;;9.76;72.61;99080.88;5096927;28;8833;-60
2023/04/22 04:31:29;;;;;;;;;7.00;7.00;;;;;9.79;72.34;99077.91;5096903;28;9492;-60
2023/04/22 04:33:57;;;;;;;;;4.00;3.75;;;;;9.81;72.17;99080.44;5096933;28;9504;-60
2023/04/22 04:36:28;;;;;;;;;5.50;4.00;;;;;9.83;72.36;99076.66;5096988;28;8837;-60
2023/04/22 04:38:56;;;;;;;;;4.00;4.00;;;;;9.87;72.05;99074.56;5096608;28;8845;-58
2023/04/22 04:41:25;;;;;;;;;3.50;3.50;;;;;9.90;72.21;99066.31;5096628;28;9528;-60
2023/04/22 04:43:53;;;;;;;;;3.00;3.00;;;;;9.94;72.08;99067.72;5097019;28;8837;-58
2023/04/22 04:46:21;;;;;;;;;5.50;5.50;;;;;9.96;71.95;99068.41;5097046;28;9581;-60
2023/04/22 04:48:50;;;;;;;;;6.75;6.00;;;;;10.00;71.89;99053.84;5096911;28;8968;-60
2023/04/22 04:51:18;;;;;;;;;6.50;6.00;;;;;10.04;71.90;99047.31;5096726;28;8818;-60
2023/04/22 04:53:46;;;;;;;;;3.00;3.00;;;;;10.07;71.56;99047.88;5096670;28;8818;-58
2023/04/22 04:56:15;;;;;;;;;4.50;4.00;;;;;10.10;71.77;99052.91;5096713;28;8818;-60
2023/04/22 04:58:43;;;;;;;;;7.00;6.75;;;;;10.12;71.48;99058.09;5096769;28;8838;-61
2023/04/22 05:01:11;;;;;;;;;4.00;4.00;;;;;10.13;71.95;99052.63;5096464;28;8827;-62
2023/04/22 05:03:39;;;;;;;;;4.00;4.00;;;;;10.15;71.93;99055.13;5088491;28;9479;-61
2023/04/22 05:06:07;;;;;;;;;9.50;7.25;;;;;10.17;71.76;99053.19;5096460;28;8918;-59
2023/04/22 05:08:35;;;;;;;;;9.25;8.50;;;;;10.20;71.74;99050.25;5096477;28;8832;-61
2023/04/22 05:11:02;;;;;;;;;10.00;9.25;;;;;10.19;71.83;99057.41;5096183;28;8850;-61
2023/04/22 05:13:30;;;;;;;;;10.00;8.50;;;;;10.21;71.16;99052.75;5096044;28;8916;-60
2023/04/22 05:15:58;;;;;;;;;9.75;8.75;;;;;10.25;71.44;99059.47;5095855;28;8857;-61
2023/04/22 05:18:26;;;;;;;;;10.00;9.50;;;;;10.28;71.31;99061.88;5095729;28;8828;-61
2023/04/22 05:20:54;;;;;;;;;7.00;7.00;;;;;10.31;71.28;99066.06;5095719;28;8856;-61
2023/04/22 05:23:22;;;;;;;;;9.00;9.00;;;;;10.34;71.13;99061.31;5095577;28;8820;-60
2023/04/22 05:25:49;;;;;;;;;9.00;8.00;;;;;10.38;70.99;99064.47;5096407;28;8870;-61
2023/04/22 05:28:19;;;;;;;;;10.50;9.00;;;;;10.42;70.92;99061.44;5096232;28;8930;-60
2023/04/22 05:30:47;;;;;;;;;9.50;9.50;;;;;10.47;70.61;99059.16;5096098;28;8853;-60
2023/04/22 05:33:15;;;;;;;;;8.00;8.00;;;;;10.53;71.15;99050.59;5095702;28;8818;-61
2023/04/22 05:35:42;;;;;;;;;6.50;6.50;;;;;10.61;70.79;99057.88;5096011;28;8872;-58
2023/04/22 05:38:10;;;;;;;;;11.50;10.00;;;;;10.68;70.92;99051.81;5096118;28;9492;-61
2023/04/22 05:40:39;;;;;;;;;10.00;8.00;;;;;10.77;70.78;99058.13;5095843;28;8872;-59
2023/04/22 05:43:07;;;;;;;;;9.50;9.50;;;;;10.85;70.33;99058.22;5095523;28;8830;-59
2023/04/22 05:45:34;;;;;;;;;10.00;9.50;;;;;10.92;70.55;99054.81;5095651;28;8826;-60
2023/04/22 05:48:02;;;;;;;;;8.00;8.00;;;;;10.99;70.54;99058.59;5095617;28;8899;-59
2023/04/22 05:50:30;;;;;;;;;7.75;7.25;;;;;11.05;69.80;99046.50;5095451;28;8837;-61
2023/04/22 05:52:58;;;;;;;;;8.50;8.25;;;;;11.11;69.86;99049.44;5094755;28;8837;-60
2023/04/22 05:55:25;;;;;;;;;7.50;7.50;;;;;11.18;69.99;99055.00;5095450;28;8818;-60
2023/04/22 05:57:53;;;;;;;;;7.50;7.00;;;;;11.22;69.80;99048.41;5094916;28;8864;-59
2023/04/22 06:00:21;;;;;;;;;8.50;7.00;;;;;11.29;69.74;99057.50;5094675;28;8935;-60
2023/04/22 06:02:49;;;;;;;;;6.00;5.50;;;;;11.34;69.99;99052.53;5094471;28;8866;-61
2023/04/22 06:05:17;;;;;;;;;7.00;7.00;;;;;11.41;69.62;99049.13;5094917;28;8899;-60
2023/04/22 06:07:45;;;;;;;;;6.50;6.00;;;;;11.52;69.61;99050.75;5097834;28;8818;-61
2023/04/22 06:10:13;;;;;;;;;8.00;7.50;;;;;11.64;68.91;99044.25;5099600;28;8818;-61
2023/04/22 06:12:40;;;;;;;;;6.00;6.00;;;;;11.78;69.23;99049.91;5099497;28;8806;-61
2023/04/22 06:15:08;;;;;;;;;3.75;3.00;;;;;11.97;68.33;99044.41;5098623;28;8841;-60
2023/04/22 06:17:36;;;;;;;;;4.00;4.00;;;;;12.20;67.94;99034.94;5098322;28;8853;-61
2023/04/22 06:20:04;;;;;;;;;4.00;4.00;;;;;12.41;67.77;99019.44;5098236;28;8829;-59
2023/04/22 06:22:31;;;;;;;;;4.00;4.00;;;;;12.63;67.77;99029.59;5097923;28;8822;-59
2023/04/22 06:24:59;;;;;;;;;4.00;4.00;;;;;12.82;67.14;99024.00;5097546;28;8822;-58
2023/04/22 06:27:28;;;;;;;;;3.25;3.25;;;;;13.03;66.46;99019.16;5097856;28;8837;-61
2023/04/22 06:29:55;;;;;;;;;3.50;3.00;;;;;13.24;66.48;99025.78;5098113;28;8842;-61
2023/04/22 06:32:23;;;;;;;;;3.50;3.50;;;;;13.43;65.90;99032.72;5098007;28;8814;-59
2023/04/22 06:34:51;;;;;;;;;3.00;3.00;;;;;13.63;65.71;99026.91;5097442;28;8814;-60
2023/04/22 06:37:19;;;;;;;;;3.25;3.00;;;;;13.86;65.52;99021.75;5098322;28;8865;-61
2023/04/22 06:39:46;;;;;;;;;3.00;1.00;;;;;14.05;65.21;99026.81;5097655;28;8850;-61
2023/04/22 06:42:14;;;;;;;;;4.50;4.00;;;;;14.23;65.01;99030.19;5098022;28;8834;-60
2023/04/22 06:44:42;;;;;;;;;6.25;3.25;;;;;14.40;64.55;99023.81;5097604;28;8821;-59
2023/04/22 06:47:10;;;;;;;;;6.50;5.50;;;;;14.58;64.31;99025.31;5097704;28;8822;-61
2023/04/22 06:49:39;;;;;;;;;6.00;4.00;;;;;14.75;64.09;99021.59;5098233;28;8853;-62
2023/04/22 06:52:08;;;;;;;;;2.00;2.00;;;;;14.92;63.87;99022.38;5098260;28;8822;-60
2023/04/22 06:54:35;;;;;;;;;3.50;3.25;;;;;15.05;63.73;99025.38;5098296;28;8845;-61
2023/04/22 06:57:03;;;;;;;;;4.00;4.00;;;;;15.18;63.16;99023.00;5097725;28;8834;-61
2023/04/22 06:59:30;;;;;;;;;6.00;5.50;;;;;15.29;62.69;99030.63;5097286;28;8845;-58
2023/04/22 07:01:58;;;;;;;;;4.00;3.75;;;;;15.39;62.96;99028.63;5097209;28;8818;-61
2023/04/22 07:04:28;;;;;;;;;3.50;3.50;;;;;15.48;62.94;99020.34;5097156;28;8844;-59
2023/04/22 07:06:55;;;;;;;;;4.00;4.00;;;;;15.58;62.19;99012.94;5096745;28;8826;-61
2023/04/22 07:09:23;;;;;;;;;1.50;1.00;;;;;15.71;61.84;99021.22;5097039;28;8857;-60
2023/04/22 07:11:51;;;;;;;;;4.00;4.00;;;;;15.82;61.82;99017.31;5097054;28;8830;-60
2023/04/22 07:14:19;;;;;;;;;1.50;1.50;;;;;15.89;61.88;99012.91;5096152;28;8834;-61
2023/04/22 07:16:47;;;;;;;;;3.00;3.00;;;;;15.95;61.59;99017.56;5097041;28;8826;-61
2023/04/22 07:19:15;;;;;;;;;3.20;3.00;;;;;15.99;61.47;99022.41;5095581;28;8825;-60
2023/04/22 07:21:43;;;;;;;;;3.60;3.20;;;;;16.09;61.78;99017.63;5097244;28;8971;-60
2023/04/22 07:24:14;;;;;;;;;2.20;2.20;;;;;16.22;61.45;99017.03;5097039;28;8806;-60
2023/04/22 07:26:42;;;;;;;;;3.80;3.80;;;;;16.32;61.18;99016.59;5096806;28;8838;-59
2023/04/22 07:29:11;;;;;;;;;3.00;3.00;;;;;16.39;60.62;99022.97;5097394;28;8850;-61
2023/04/22 07:31:39;;;;;;;;;1.80;1.40;;;;;16.46;60.47;99017.69;5097730;28;8858;-62
2023/04/22 07:34:09;;;;;;;;;3.00;3.00;;;;;16.55;60.06;99004.00;5097459;28;8821;-60
2023/04/22 07:36:37;;;;;;;;;3.80;3.00;;;;;16.76;59.81;99004.13;5096694;28;8872;-61
2023/04/22 07:39:06;;;;;;;;;3.00;3.00;;;;;17.01;59.44;99000.13;5095950;28;8943;-61
2023/04/22 07:41:35;;;;;;;;;3.60;3.60;;;;;17.27;58.73;98996.97;5086976;28;8814;-62
2023/04/22 07:44:03;;;;;;;;;3.00;3.00;;;;;17.44;58.61;99002.00;5095955;28;9592;-61
2023/04/22 07:46:30;;;;;;;;;3.00;3.00;;;;;17.46;58.50;98991.88;5095566;28;8814;-60
2023/04/22 07:48:58;;;;;;;;;4.00;3.40;;;;;17.43;58.22;98991.41;5095530;28;8908;-61
2023/04/22 07:51:26;;;;;;;;;4.40;4.00;;;;;17.46;58.30;99002.63;5095607;28;8822;-61
2023/04/22 07:53:55;;;;;;;;;3.00;3.00;;;;;17.63;57.67;98993.31;5095257;28;8837;-60
2023/04/22 07:56:23;;;;;;;;;3.00;3.00;;;;;17.78;57.07;98988.72;5096033;28;8826;-61
2023/04/22 07:58:51;;;;;;;;;3.00;3.00;;;;;17.94;57.08;98982.25;5095943;28;8850;-59
2023/04/22 08:01:18;;;;;;;;;5.20;4.00;;;;;18.06;57.14;98981.53;5096129;28;8846;-60
2023/04/22 08:03:46;;;;;;;;;3.80;3.80;;;;;18.13;55.92;98985.16;5095414;28;8822;-60
2023/04/22 08:06:15;;;;;;;;;4.00;3.60;;;;;18.20;55.69;98983.34;5094160;28;9198;-61
2023/04/22 08:08:43;;;;;;;;;3.20;3.20;;;;;18.29;55.61;98978.66;5094043;28;8829;-59
2023/04/22 08:11:11;;;;;;;;;3.00;3.00;;;;;18.41;55.07;98975.28;5094347;28;8834;-59
2023/04/22 08:13:38;;;;;;;;;5.80;4.80;;;;;18.51;55.30;98983.84;5094763;28;8807;-61
2023/04/22 08:16:06;;;;;;;;;4.80;4.80;;;;;18.65;54.83;98969.44;5095878;28;8830;-61
2023/04/22 08:18:35;;;;;;;;;3.20;3.00;;;;;18.80;54.87;98972.84;5095651;28;8832;-60
2023/04/22 08:21:03;;;;;;;;;2.00;2.00;;;;;18.97;54.21;98973.38;5094947;28;8857;-59
2023/04/22 08:23:31;;;;;;;;;3.20;3.20;;;;;19.09;53.88;98972.63;5095786;28;8864;-61
2023/04/22 08:25:59;;;;;;;;;5.60;5.60;;;;;19.23;54.31;98970.84;5095677;28;8842;-59
2023/04/22 08:28:26;;;;;;;;;1.00;0.60;;;;;19.37;53.81;98975.28;5095001;28;8814;-60
2023/04/22 08:30:55;;;;;;;;;5.00;4.40;;;;;19.48;54.01;98977.38;5094900;28;8830;-59
2023/04/22 08:33:22;;;;;;;;;3.20;1.00;;;;;19.55;53.40;98972.84;5093368;28;8814;-59
2023/04/22 08:35:53;;;;;;;;;4.20;4.20;;;;;19.57;53.27;98966.22;5094265;28;8826;-60
2023/04/22 08:38:21;;;;;;;;;4.20;4.20;;;;;19.65;53.26;98957.09;5094613;28;8830;-61
2023/04/22 08:40:49;;;;;;;;;3.80;3.20;;;;;19.75;53.13;98958.38;5094656;28;8841;-61
2023/04/22 08:43:18;;;;;;;;;4.20;4.20;;;;;19.83;52.30;98965.47;5095079;28;8834;-60
2023/04/22 08:45:45;;;;;;;;;7.00;5.00;;;;;19.87;52.28;98964.03;5094687;28;8832;-60
2023/04/22 08:48:13;;;;;;;;;4.00;4.00;;;;;19.94;51.92;98957.59;5094906;28;8918;-60
2023/04/22 08:50:41;;;;;;;;;5.00;5.00;;;;;20.03;52.31;98953.63;5095145;28;8802;-60
2023/04/22 08:53:09;;;;;;;;;4.00;4.00;;;;;20.13;51.43;98953.28;5094645;28;8880;-60
2023/04/22 08:55:37;;;;;;;;;4.00;4.00;;;;;20.19;51.88;98949.75;5093827;28;8822;-60
2023/04/22 08:58:04;;;;;;;;;5.40;5.00;;;;;20.30;51.55;98946.41;5094501;28;8842;-60
2023/04/22 09:00:33;;;;;;;;;7.00;6.20;;;;;20.38;51.25;98938.94;5094545;28;8868;-60
2023/04/22 09:03:01;;;;;;;;;2.00;2.00;;;;;20.48;51.43;98936.63;5093989;28;8822;-60
2023/04/22 09:05:30;;;;;;;;;4.40;4.40;;;;;20.54;50.98;98935.78;5093967;28;8956;-59
2023/04/22 09:07:58;;;;;;;;;4.60;4.00;;;;;20.63;50.57;98936.41;5095292;28;8834;-60
2023/04/22 09:10:27;;;;;;;;;3.20;3.20;;;;;20.75;50.67;98925.56;5095382;28;8830;-60
2023/04/22 09:12:55;;;;;;;;;2.40;2.40;;;;;20.81;49.85;98937.44;5095322;28;8826;-61
2023/04/22 09:15:22;;;;;;;;;5.20;5.20;;;;;20.85;50.12;98925.13;5094616;28;8826;-60
2023/04/22 09:17:50;;;;;;;;;2.00;2.00;;;;;20.92;49.37;98928.69;5095150;28;8980;-61
2023/04/22 09:20:18;;;;;;;;;4.00;4.00;;;;;21.01;49.35;98916.56;5094722;28;8864;-60
2023/04/22 09:22:46;;;;;;;;;4.00;4.00;;;;;21.12;49.29;98916.75;5094167;28;8856;-59
2023/04/22 09:25:15;;;;;;;;;2.40;2.00;;;;;21.26;48.96;98912.94;5092940;28;8834;-60
2023/04/22 09:27:42;;;;;;;;;4.00;4.00;;;;;21.43;48.38;98918.69;5092974;28;8935;-59
2023/04/22 09:30:11;;;;;;;;;5.00;4.40;;;;;21.57;48.60;98915.69;5092925;28;8943;-62
2023/04/22 09:32:39;;;;;;;;;2.00;2.00;;;;;21.64;48.29;98912.97;5092072;28;8841;-60
2023/04/22 09:35:07;;;;;;;;;2.00;1.60;;;;;21.65;47.75;98895.66;5092322;28;8810;-59
2023/04/22 09:37:34;;;;;;;;;4.80;4.80;;;;;21.56;48.19;98897.78;5093686;28;8937;-60
2023/04/22 09:40:16;;;;;;;;;7.20;5.00;;;;;21.46;48.00;98902.84;5094205;28;8825;-60
2023/04/22 09:42:44;;;;;;;;;5.00;4.20;;;;;21.47;47.81;98922.63;5093221;28;8865;-62
2023/04/22 09:45:12;;;;;;;;;5.00;5.00;;;;;21.60;47.28;98906.31;5093018;28;8822;-59
2023/04/22 09:47:40;;;;;;;;;5.00;5.00;;;;;21.81;47.21;98911.44;5093955;28;9511;-60
2023/04/22 09:50:08;;;;;;;;;5.00;5.00;;;;;22.11;46.70;98890.78;5094095;28;8826;-59
2023/04/22 09:52:36;;;;;;;;;4.40;4.40;;;;;22.49;46.34;98907.78;5093947;28;9535;-60
2023/04/22 09:55:04;;;;;;;;;4.60;4.60;;;;;22.81;45.07;98903.91;5093315;28;9523;-60
2023/04/22 09:57:32;;;;;;;;;5.00;4.00;;;;;23.05;43.99;98886.72;5094156;28;8852;-60
2023/04/22 10:00:00;;;;;;;;;4.60;4.00;;;;;23.21;44.25;98886.16;5093939;28;9782;-60
2023/04/22 10:02:28;;;;;;;;;4.40;4.00;;;;;23.41;43.88;98895.69;5094301;28;8842;-60
2023/04/22 10:04:57;;;;;;;;;2.40;2.40;;;;;23.65;43.11;98880.31;5093253;28;8822;-60
2023/04/22 10:07:30;;;;;;;;;5.00;5.00;;;;;23.90;42.33;98890.00;5093630;28;8826;-59
2023/04/22 10:09:58;;;;;;;;;3.20;3.20;;;;;24.26;42.04;98889.03;5093716;28;8830;-60
2023/04/22 10:12:26;;;;;;;;;1.80;1.80;;;;;24.60;41.79;98880.91;5093446;28;8859;-60
2023/04/22 10:15:02;;;;;;;;;5.20;3.80;;;;;24.90;40.69;98864.41;5093320;28;8838;-59
2023/04/22 10:17:31;;;;;;;;;5.40;5.40;;;;;24.95;40.76;98872.69;5094247;28;8906;-61
2023/04/22 10:19:59;;;;;;;;;4.00;2.20;;;;;24.96;40.66;98869.72;5093724;28;8818;-60
2023/04/22 10:22:27;;;;;;;;;5.00;4.20;;;;;24.98;40.26;98864.03;5094452;28;8860;-59
2023/04/22 10:24:56;;;;;;;;;6.40;6.00;;;;;25.15;40.06;98867.66;5093624;28;8936;-61
2023/04/22 10:27:24;;;;;;;;;3.00;3.00;;;;;25.47;39.59;98855.28;5094012;28;9523;-60
2023/04/22 10:29:52;;;;;;;;;3.00;3.00;;;;;25.68;39.90;98866.31;5094681;28;9570;-60
2023/04/22 10:32:21;;;;;;;;;6.00;5.00;;;;;25.58;39.90;98860.69;5094245;28;8830;-62
2023/04/22 10:34:49;;;;;;;;;5.00;3.40;;;;;25.57;39.57;98860.91;5094295;28;8818;-61
2023/04/22 10:37:17;;;;;;;;;5.00;5.00;;;;;25.91;39.30;98856.16;5094376;28;8832;-62
2023/04/22 10:39:45;;;;;;;;;5.00;5.00;;;;;26.07;38.53;98860.78;5093905;28;8838;-60
2023/04/22 10:42:14;;;;;;;;;5.00;4.20;;;;;26.31;38.18;98859.53;5093787;28;8834;-60
2023/04/22 10:44:41;;;;;;;;;5.00;5.00;;;;;26.55;37.63;98855.56;5093801;28;8806;-61
2023/04/22 10:47:09;;;;;;;;;5.00;5.00;;;;;26.92;37.23;98855.81;5093757;28;8838;-62
2023/04/22 10:49:38;;;;;;;;;3.80;3.00;;;;;27.29;36.73;98854.97;5093361;28;8907;-60
2023/04/22 10:52:07;;;;;;;;;3.00;3.00;;;;;27.61;36.26;98861.34;5093374;28;8818;-59
2023/04/22 10:54:36;;;;;;;;;3.00;3.00;;;;;27.74;35.94;98850.00;5096562;28;8810;-62
2023/04/22 10:57:04;;;;;;;;;2.20;2.00;;;;;27.94;35.62;98852.16;5096937;28;8846;-59
2023/04/22 10:59:32;;;;;;;;;4.00;4.00;;;;;28.37;34.95;98847.34;5096076;28;8881;-60
2023/04/22 11:02:00;;;;;;;;;4.00;2.80;;;;;28.66;34.68;98854.13;5095774;28;8837;-61
2023/04/22 11:04:28;;;;;;;;;3.00;3.00;;;;;28.51;35.45;98845.00;5095070;28;8961;-62
2023/04/22 11:06:56;;;;;;;;;4.00;4.00;;;;;28.65;34.79;98843.41;5095237;28;8972;-60
2023/04/22 11:09:24;;;;;;;;;3.40;2.60;;;;;29.13;34.68;98843.19;5095462;28;8834;-60
2023/04/22 11:11:53;;;;;;;;;4.00;4.00;;;;;29.64;34.34;98843.09;5095868;28;8861;-61
2023/04/22 11:14:20;;;;;;;;;3.00;3.00;;;;;29.96;34.11;98838.19;5095244;28;8813;-61
2023/04/22 11:16:49;;;;;;;;;5.00;4.60;;;;;30.43;33.38;98832.47;5096483;28;8830;-60
2023/04/22 11:19:17;;;;;;;;;3.20;3.20;;;;;30.67;33.05;98836.28;5096915;28;8815;-61
2023/04/22 11:21:45;;;;;;;;;5.00;4.00;;;;;30.42;33.35;98834.38;5097205;28;8826;-60
2023/04/22 11:24:14;;;;;;;;;3.60;3.40;;;;;29.57;34.32;98833.47;5097478;28;9545;-60
2023/04/22 11:26:42;;;;;;;;;3.40;3.00;;;;;28.62;35.44;98847.53;5096803;28;8822;-61
2023/04/22 11:29:10;;;;;;;;;3.60;3.00;;;;;27.81;36.21;98847.94;5096855;28;8845;-61
2023/04/22 11:31:38;;;;;;;;;4.80;4.20;;;;;27.49;37.11;98849.75;5096091;28;9524;-61
2023/04/22 11:34:06;;;;;;;;;3.60;3.40;;;;;27.28;36.89;98855.22;5095955;28;8821;-60
2023/04/22 11:36:34;;;;;;;;;4.00;4.00;;;;;27.25;36.87;98863.94;5095831;28;8898;-60
2023/04/22 11:39:02;;;;;;;;;6.80;6.00;;;;;27.24;37.07;98862.31;5095007;28;8810;-60
2023/04/22 11:41:30;;;;;;;;;3.00;3.00;;;;;26.93;37.51;98860.22;5094227;28;8856;-60
2023/04/22 11:43:58;;;;;;;;;7.00;6.20;;;;;26.74;37.82;98856.97;5095968;28;8830;-60
2023/04/22 11:46:26;;;;;;;;;5.60;4.80;;;;;27.11;37.27;98855.28;5095543;28;8837;-60